createdAt,value
2017-12-24T00:02:09.088Z,8.10
2017-12-24T00:04:42.828Z,8.10
2017-12-24T00:07:16.576Z,8.10
2017-12-24T00:09:51.144Z,8.00
2017-12-24T00:12:24.996Z,8.00
2017-12-24T00:14:58.824Z,8.00
2017-12-24T00:17:33.650Z,8.00
2017-12-24T00:20:07.364Z,8.00
2017-12-24T00:22:41.468Z,8.10
2017-12-24T00:25:15.252Z,8.00
2017-12-24T00:27:49.096Z,8.00
2017-12-24T00:30:22.693Z,8.00
2017-12-24T00:32:57.192Z,7.90
2017-12-24T00:35:30.917Z,7.90
2017-12-24T00:38:04.649Z,8.00
2017-12-24T00:40:38.404Z,8.00
2017-12-24T00:43:12.918Z,8.00
2017-12-24T00:45:46.615Z,7.90
2017-12-24T00:48:21.168Z,8.00
2017-12-24T00:50:54.796Z,8.00
2017-12-24T00:53:28.668Z,8.00
2017-12-24T00:56:02.505Z,7.90
2017-12-24T00:58:36.318Z,8.00
2017-12-24T01:01:10.121Z,8.00
2017-12-24T01:03:44.012Z,8.00
2017-12-24T01:06:18.531Z,8.00
2017-12-24T01:08:52.342Z,8.00
2017-12-24T01:11:26.865Z,8.00
2017-12-24T01:14:01.300Z,7.90
2017-12-24T01:16:35.903Z,8.00
2017-12-24T01:19:10.498Z,8.00
2017-12-24T01:21:44.474Z,8.00
2017-12-24T01:24:19.141Z,7.90
2017-12-24T01:26:52.900Z,7.90
2017-12-24T01:29:26.700Z,7.90
2017-12-24T01:32:01.193Z,7.80
2017-12-24T01:34:35.121Z,7.80
2017-12-24T01:37:08.810Z,7.90
2017-12-24T01:39:42.619Z,7.90
2017-12-24T01:42:16.395Z,7.80
2017-12-24T01:44:50.930Z,8.00
2017-12-24T01:47:24.653Z,7.90
2017-12-24T01:49:58.457Z,7.90
2017-12-24T01:52:32.258Z,7.90
2017-12-24T01:55:06.285Z,7.90
2017-12-24T01:57:40.028Z,7.90
2017-12-24T02:00:13.985Z,7.90
2017-12-24T02:02:47.692Z,8.00
2017-12-24T02:05:21.473Z,7.90
2017-12-24T02:07:55.994Z,7.90
2017-12-24T02:10:29.840Z,7.90
2017-12-24T02:13:04.340Z,7.90
2017-12-24T02:15:38.116Z,7.90
2017-12-24T02:18:11.866Z,7.90
2017-12-24T02:20:45.696Z,7.90
2017-12-24T02:23:19.584Z,7.90
2017-12-24T02:25:54.079Z,7.90
2017-12-24T02:28:27.883Z,7.90
2017-12-24T02:31:01.680Z,7.90
2017-12-24T02:33:35.248Z,7.90
2017-12-24T02:36:09.193Z,7.80
2017-12-24T02:38:43.057Z,7.80
2017-12-24T02:41:17.782Z,7.80
2017-12-24T02:43:51.572Z,7.90
2017-12-24T02:46:25.333Z,7.90
2017-12-24T02:48:59.208Z,7.80
2017-12-24T02:51:34.253Z,7.80
2017-12-24T02:54:07.977Z,7.80
2017-12-24T02:56:42.522Z,7.90
2017-12-24T02:59:16.543Z,7.80
2017-12-24T03:01:50.289Z,7.80
2017-12-24T03:04:24.057Z,7.90
2017-12-24T03:06:57.735Z,7.90
2017-12-24T03:09:32.250Z,7.90
2017-12-24T03:12:05.975Z,7.80
2017-12-24T03:14:39.720Z,7.80
2017-12-24T03:17:13.416Z,7.80
2017-12-24T03:19:47.876Z,7.80
2017-12-24T03:22:21.767Z,7.90
2017-12-24T03:24:55.493Z,7.90
2017-12-24T03:27:29.165Z,7.90
2017-12-24T03:30:04.829Z,7.90
2017-12-24T03:32:38.650Z,7.90
2017-12-24T03:35:12.360Z,7.90
2017-12-24T03:37:46.059Z,7.80
2017-12-24T03:40:19.744Z,7.80
2017-12-24T03:42:53.604Z,7.90
2017-12-24T03:45:27.504Z,7.80
2017-12-24T03:48:01.244Z,7.80
2017-12-24T03:50:34.990Z,7.80
2017-12-24T03:53:09.852Z,7.80
2017-12-24T03:55:43.524Z,7.80
2017-12-24T03:58:17.377Z,7.80
2017-12-24T04:00:51.164Z,7.90
2017-12-24T04:03:25.640Z,7.80
2017-12-24T04:05:59.427Z,7.80
2017-12-24T04:08:33.876Z,7.80
2017-12-24T04:11:07.674Z,7.80
2017-12-24T04:13:42.170Z,7.80
2017-12-24T04:16:16.256Z,7.80
2017-12-24T04:18:49.984Z,7.80
2017-12-24T04:21:25.096Z,7.80
2017-12-24T04:23:58.692Z,7.80
2017-12-24T04:26:32.499Z,7.70
2017-12-24T04:29:06.052Z,7.70
2017-12-24T04:31:40.717Z,7.80
2017-12-24T04:34:14.474Z,7.80
2017-12-24T04:36:48.957Z,7.80
2017-12-24T04:39:22.731Z,7.80
2017-12-24T04:41:56.607Z,7.80
2017-12-24T04:44:30.384Z,7.70
2017-12-24T04:47:04.491Z,7.80
2017-12-24T04:49:38.297Z,7.80
2017-12-24T04:52:12.133Z,7.80
2017-12-24T04:54:46.017Z,7.80
2017-12-24T04:57:19.827Z,7.90
2017-12-24T04:59:53.537Z,7.80
2017-12-24T05:02:27.406Z,7.80
2017-12-24T05:05:01.180Z,7.70
2017-12-24T05:07:34.957Z,7.70
2017-12-24T05:10:08.605Z,7.70
2017-12-24T05:12:42.472Z,7.70
2017-12-24T05:15:16.276Z,7.70
2017-12-24T05:17:50.791Z,7.90
2017-12-24T05:20:24.357Z,7.80
2017-12-24T05:22:58.115Z,7.80
2017-12-24T05:25:31.984Z,7.80
2017-12-24T05:28:06.885Z,7.80
2017-12-24T05:30:40.622Z,7.80
2017-12-24T05:33:14.603Z,7.80
2017-12-24T05:35:48.400Z,7.80
2017-12-24T05:38:22.207Z,7.80
2017-12-24T05:40:55.989Z,7.70
2017-12-24T05:43:30.545Z,7.60
2017-12-24T05:46:04.406Z,7.60
2017-12-24T05:48:38.181Z,7.60
2017-12-24T05:51:12.004Z,7.50
2017-12-24T05:53:46.929Z,7.60
2017-12-24T05:56:20.580Z,7.60
2017-12-24T05:58:54.355Z,7.60
2017-12-24T06:01:28.029Z,7.60
2017-12-24T06:04:01.825Z,7.60
2017-12-24T06:06:35.628Z,7.50
2017-12-24T06:09:09.457Z,7.60
2017-12-24T06:11:43.321Z,7.60
2017-12-24T06:14:17.113Z,7.60
2017-12-24T06:16:51.696Z,7.50
2017-12-24T06:19:25.536Z,7.50
2017-12-24T06:21:59.328Z,7.40
2017-12-24T06:24:33.917Z,7.40
2017-12-24T06:27:07.754Z,7.40
2017-12-24T06:29:41.582Z,7.40
2017-12-24T06:32:15.352Z,7.40
2017-12-24T06:34:49.184Z,7.40
2017-12-24T06:37:23.008Z,7.40
2017-12-24T06:39:56.859Z,7.40
2017-12-24T06:42:30.681Z,7.30
2017-12-24T06:45:04.401Z,7.40
2017-12-24T06:47:38.132Z,7.40
2017-12-24T06:50:13.417Z,7.40
2017-12-24T06:52:47.180Z,7.40
2017-12-24T06:55:21.904Z,7.40
2017-12-24T06:57:55.556Z,7.40
2017-12-24T07:00:29.304Z,7.40
2017-12-24T07:03:03.773Z,7.40
2017-12-24T07:05:38.536Z,7.40
2017-12-24T07:08:12.377Z,7.40
2017-12-24T07:10:46.516Z,7.40
2017-12-24T07:13:20.239Z,7.40
2017-12-24T07:15:54.085Z,7.40
2017-12-24T07:18:27.875Z,7.40
2017-12-24T07:21:01.681Z,7.40
2017-12-24T07:23:36.159Z,7.30
2017-12-24T07:26:10.708Z,7.40
2017-12-24T07:28:45.316Z,7.40
2017-12-24T07:31:19.050Z,7.40
2017-12-24T07:33:53.621Z,7.50
2017-12-24T07:36:27.685Z,7.50
2017-12-24T07:39:01.466Z,7.50
2017-12-24T07:41:35.300Z,7.50
2017-12-24T07:44:09.144Z,7.50
2017-12-24T07:46:44.021Z,7.50
2017-12-24T07:49:18.165Z,7.50
2017-12-24T07:51:51.932Z,7.50
2017-12-24T07:54:25.747Z,7.50
2017-12-24T07:56:59.568Z,7.50
2017-12-24T07:59:33.355Z,7.40
2017-12-24T08:02:07.100Z,7.50
2017-12-24T08:04:41.280Z,7.50
2017-12-24T08:07:15.872Z,7.40
2017-12-24T08:09:49.916Z,7.40
2017-12-24T08:12:23.616Z,7.50
2017-12-24T08:14:57.460Z,7.50
2017-12-24T08:17:31.216Z,7.50
2017-12-24T08:20:04.972Z,7.50
2017-12-24T08:22:38.853Z,7.60
2017-12-24T08:25:12.676Z,7.50
2017-12-24T08:27:46.287Z,7.50
2017-12-24T08:30:20.141Z,7.60
2017-12-24T08:32:53.931Z,7.50
2017-12-24T08:35:28.497Z,7.60
2017-12-24T08:38:02.367Z,7.50
2017-12-24T08:40:36.000Z,7.60
2017-12-24T08:43:09.780Z,7.50
2017-12-24T08:45:43.795Z,7.50
2017-12-24T08:48:17.503Z,7.40
2017-12-24T08:50:51.301Z,7.50
2017-12-24T08:53:24.988Z,7.60
2017-12-24T08:55:59.549Z,7.60
2017-12-24T08:58:33.360Z,7.60
2017-12-24T09:01:07.060Z,7.60
2017-12-24T09:03:40.837Z,7.60
2017-12-24T09:06:14.711Z,7.70
2017-12-24T09:08:48.489Z,7.60
2017-12-24T09:11:23.003Z,7.70
2017-12-24T09:13:56.722Z,7.60
2017-12-24T09:16:30.381Z,7.70
2017-12-24T09:19:04.128Z,7.70
2017-12-24T09:21:37.937Z,7.70
2017-12-24T09:24:11.708Z,7.70
2017-12-24T09:26:45.597Z,7.80
2017-12-24T09:29:19.385Z,7.80
2017-12-24T09:31:53.433Z,7.80
2017-12-24T09:34:27.178Z,7.80
2017-12-24T09:37:00.928Z,7.80
2017-12-24T09:39:34.769Z,7.90
2017-12-24T09:42:08.432Z,8.00
2017-12-24T09:44:42.213Z,8.00
2017-12-24T09:47:15.984Z,8.10
2017-12-24T09:49:49.763Z,8.20
2017-12-24T09:52:24.324Z,8.10
2017-12-24T09:54:58.011Z,8.10
2017-12-24T09:57:31.775Z,8.10
2017-12-24T10:00:05.628Z,8.10
2017-12-24T10:02:40.028Z,8.00
2017-12-24T10:05:14.571Z,8.00
2017-12-24T10:07:48.245Z,8.00
2017-12-24T10:10:22.000Z,7.90
2017-12-24T10:12:55.713Z,7.90
2017-12-24T10:15:29.463Z,7.90
2017-12-24T10:18:03.200Z,7.90
2017-12-24T10:20:37.676Z,8.00
2017-12-24T10:23:11.734Z,8.00
2017-12-24T10:25:45.513Z,8.10
2017-12-24T10:28:19.345Z,8.20
2017-12-24T10:30:53.156Z,8.20
2017-12-24T10:33:27.259Z,8.40
2017-12-24T10:36:00.828Z,8.50
2017-12-24T10:38:34.790Z,8.50
2017-12-24T10:41:08.616Z,8.60
2017-12-24T10:43:42.412Z,8.60
2017-12-24T10:46:16.119Z,8.50
2017-12-24T10:48:50.839Z,8.70
2017-12-24T10:51:24.653Z,8.70
2017-12-24T10:53:58.838Z,8.50
2017-12-24T10:56:33.416Z,8.50
2017-12-24T10:59:08.108Z,8.50
2017-12-24T11:01:42.716Z,8.50
2017-12-24T11:04:16.504Z,8.50
2017-12-24T11:06:51.133Z,8.40
2017-12-24T11:09:25.846Z,8.50
2017-12-24T11:11:59.762Z,8.50
2017-12-24T11:14:33.329Z,8.40
2017-12-24T11:17:07.193Z,8.40
2017-12-24T11:19:40.883Z,8.40
2017-12-24T11:22:15.499Z,8.30
2017-12-24T11:24:50.028Z,8.20
2017-12-24T11:27:24.497Z,8.30
2017-12-24T11:29:58.129Z,8.30
2017-12-24T11:32:32.635Z,8.50
2017-12-24T11:35:06.368Z,8.50
2017-12-24T11:37:39.980Z,8.50
2017-12-24T11:40:14.938Z,8.70
2017-12-24T11:42:48.581Z,8.60
2017-12-24T11:45:23.043Z,8.80
2017-12-24T11:47:56.792Z,8.80
2017-12-24T11:50:31.386Z,8.70
2017-12-24T11:53:05.076Z,8.70
2017-12-24T11:55:38.917Z,8.70
2017-12-24T11:58:12.728Z,8.70
2017-12-24T12:00:46.443Z,8.80
2017-12-24T12:03:20.182Z,8.60
2017-12-24T12:05:54.846Z,8.60
2017-12-24T12:08:28.639Z,8.60
2017-12-24T12:11:03.328Z,8.50
2017-12-24T12:13:37.021Z,8.50
2017-12-24T12:16:11.598Z,8.50
2017-12-24T12:18:46.148Z,8.50
2017-12-24T12:21:20.073Z,8.40
2017-12-24T12:23:53.863Z,8.40
2017-12-24T12:26:27.608Z,8.60
2017-12-24T12:29:01.345Z,8.50
2017-12-24T12:31:35.042Z,8.50
2017-12-24T12:34:08.800Z,8.50
2017-12-24T12:36:42.776Z,8.50
2017-12-24T12:39:16.500Z,8.50
2017-12-24T12:41:50.244Z,8.50
2017-12-24T12:44:24.021Z,8.60
2017-12-24T12:46:57.764Z,8.70
2017-12-24T12:49:31.595Z,8.70
2017-12-24T12:52:05.331Z,8.80
2017-12-24T12:54:40.248Z,8.80
2017-12-24T12:57:13.914Z,8.80
2017-12-24T12:59:47.760Z,8.90
2017-12-24T13:02:21.388Z,8.80
2017-12-24T13:04:55.162Z,8.80
2017-12-24T13:07:28.928Z,8.80
2017-12-24T13:10:02.610Z,8.80
2017-12-24T13:12:36.292Z,8.70
2017-12-24T13:15:10.105Z,8.70
2017-12-24T13:17:43.865Z,8.70
2017-12-24T13:20:18.262Z,8.60
2017-12-24T13:22:51.884Z,8.60
2017-12-24T13:25:25.838Z,8.70
2017-12-24T13:27:59.436Z,8.70
2017-12-24T13:30:33.192Z,8.70
2017-12-24T13:33:07.052Z,8.70
2017-12-24T13:35:40.886Z,8.70
2017-12-24T13:38:14.624Z,8.70
2017-12-24T13:40:48.401Z,8.70
2017-12-24T13:43:22.243Z,8.80
2017-12-24T13:45:56.841Z,8.70
2017-12-24T13:48:30.468Z,8.70
2017-12-24T13:51:04.974Z,8.70
2017-12-24T13:53:38.552Z,8.70
2017-12-24T13:56:12.484Z,8.70
2017-12-24T13:58:46.981Z,8.60
2017-12-24T14:01:20.762Z,8.60
2017-12-24T14:03:54.483Z,8.70
2017-12-24T14:06:28.328Z,8.70
2017-12-24T14:09:02.094Z,8.60
2017-12-24T14:11:36.153Z,8.60
2017-12-24T14:14:10.627Z,8.40
2017-12-24T14:16:45.087Z,8.30
2017-12-24T14:19:18.792Z,8.30
2017-12-24T14:21:52.508Z,8.30
2017-12-24T14:24:26.280Z,8.20
2017-12-24T14:27:00.412Z,8.10
2017-12-24T14:29:34.904Z,8.10
2017-12-24T14:32:08.944Z,8.10
2017-12-24T14:34:42.651Z,8.10
2017-12-24T14:37:16.479Z,8.00
2017-12-24T14:39:50.457Z,8.00
2017-12-24T14:42:24.269Z,8.00
2017-12-24T14:44:58.673Z,8.10
2017-12-24T14:47:33.172Z,8.00
2017-12-24T14:50:07.028Z,8.00
2017-12-24T14:52:41.502Z,8.10
2017-12-24T14:55:16.005Z,8.10
2017-12-24T14:57:49.825Z,8.10
2017-12-24T15:00:23.567Z,8.00
2017-12-24T15:02:57.361Z,8.00
2017-12-24T15:05:31.136Z,8.10
2017-12-24T15:08:05.573Z,8.00
2017-12-24T15:10:39.337Z,8.00
2017-12-24T15:13:13.957Z,7.90
2017-12-24T15:15:47.651Z,7.90
2017-12-24T15:18:21.425Z,7.80
2017-12-24T15:20:55.125Z,7.90
2017-12-24T15:23:29.081Z,7.80
2017-12-24T15:26:02.940Z,7.80
2017-12-24T15:28:37.456Z,7.90
2017-12-24T15:31:11.233Z,7.90
2017-12-24T15:33:45.690Z,7.90
2017-12-24T15:36:19.440Z,7.90
2017-12-24T15:38:53.181Z,7.80
2017-12-24T15:41:27.744Z,7.80
2017-12-24T15:44:01.425Z,7.80
2017-12-24T15:46:35.205Z,7.80
2017-12-24T15:49:09.800Z,7.60
2017-12-24T15:51:43.851Z,7.60
2017-12-24T15:54:18.281Z,7.80
2017-12-24T15:56:52.024Z,7.70
2017-12-24T15:59:25.832Z,7.70
2017-12-24T16:02:00.429Z,7.60
2017-12-24T16:04:34.252Z,7.60
2017-12-24T16:07:08.064Z,7.60
2017-12-24T16:09:41.670Z,7.50
2017-12-24T16:12:15.784Z,7.60
2017-12-24T16:14:49.588Z,7.60
2017-12-24T16:17:23.392Z,7.70
2017-12-24T16:19:57.175Z,7.60
2017-12-24T16:22:30.961Z,7.60
2017-12-24T16:25:04.787Z,7.60
2017-12-24T16:27:38.828Z,7.50
2017-12-24T16:30:12.687Z,7.50
2017-12-24T16:32:46.425Z,7.50
2017-12-24T16:35:21.260Z,7.50
2017-12-24T16:37:54.933Z,7.50
2017-12-24T16:40:28.809Z,7.40
2017-12-24T16:43:02.528Z,7.40
2017-12-24T16:45:36.295Z,7.50
2017-12-24T16:48:10.133Z,7.50
2017-12-24T16:50:43.924Z,7.50
2017-12-24T16:53:18.277Z,7.30
2017-12-24T16:55:52.330Z,7.30
2017-12-24T16:58:26.805Z,7.30
2017-12-24T17:01:00.612Z,7.30
2017-12-24T17:03:34.274Z,7.30
2017-12-24T17:06:08.901Z,7.30
2017-12-24T17:08:42.718Z,7.30
2017-12-24T17:11:16.758Z,7.30
2017-12-24T17:13:50.396Z,7.30
2017-12-24T17:16:24.244Z,7.30
2017-12-24T17:18:57.956Z,7.30
2017-12-24T17:21:31.773Z,7.30
2017-12-24T17:24:05.524Z,7.30
2017-12-24T17:26:39.409Z,7.20
2017-12-24T17:29:13.143Z,7.20
2017-12-24T17:31:46.925Z,7.20
2017-12-24T17:34:20.641Z,7.20
2017-12-24T17:36:54.373Z,7.10
2017-12-24T17:39:28.131Z,7.10
2017-12-24T17:42:02.039Z,7.10
2017-12-24T17:44:35.761Z,7.10
2017-12-24T17:47:09.758Z,7.10
2017-12-24T17:49:43.416Z,7.10
2017-12-24T17:52:18.013Z,7.10
2017-12-24T17:54:52.535Z,7.10
2017-12-24T17:57:26.265Z,7.00
2017-12-24T18:00:00.024Z,7.10
2017-12-24T18:02:34.621Z,7.00
2017-12-24T18:05:08.389Z,6.80
2017-12-24T18:07:42.176Z,6.80
2017-12-24T18:10:15.884Z,6.80
2017-12-24T18:12:49.677Z,6.80
2017-12-24T18:15:23.505Z,6.80
2017-12-24T18:17:58.177Z,6.70
2017-12-24T18:20:32.018Z,6.70
2017-12-24T18:23:06.589Z,6.80
2017-12-24T18:25:40.332Z,6.80
2017-12-24T18:28:14.141Z,6.70
2017-12-24T18:30:48.820Z,6.80
2017-12-24T18:33:22.746Z,6.80
2017-12-24T18:35:56.917Z,6.80
2017-12-24T18:38:30.787Z,6.70
2017-12-24T18:41:05.497Z,6.80
2017-12-24T18:43:39.316Z,6.80
2017-12-24T18:46:13.025Z,6.80
2017-12-24T18:48:46.814Z,6.80
2017-12-24T18:51:20.681Z,6.80
2017-12-24T18:53:54.486Z,6.80
2017-12-24T18:56:28.313Z,6.80
2017-12-24T18:59:02.889Z,6.90
2017-12-24T19:01:36.756Z,6.90
2017-12-24T19:04:11.293Z,6.80
2017-12-24T19:06:45.108Z,6.80
2017-12-24T19:09:18.940Z,6.80
2017-12-24T19:11:53.505Z,6.70
2017-12-24T19:14:27.275Z,6.70
2017-12-24T19:17:01.084Z,6.80
2017-12-24T19:19:34.769Z,6.70
2017-12-24T19:22:08.469Z,6.60
2017-12-24T19:24:42.272Z,6.60
2017-12-24T19:27:17.658Z,6.60
2017-12-24T19:29:51.526Z,6.60
2017-12-24T19:32:26.042Z,6.60
2017-12-24T19:34:59.864Z,6.60
2017-12-24T19:37:33.660Z,6.60
2017-12-24T19:40:07.532Z,6.40
2017-12-24T19:42:41.269Z,6.40
2017-12-24T19:45:15.064Z,6.40
2017-12-24T19:47:48.701Z,6.30
2017-12-24T19:50:22.486Z,6.30
2017-12-24T19:52:56.325Z,6.20
2017-12-24T19:55:30.314Z,6.10
2017-12-24T19:58:04.228Z,6.20
2017-12-24T20:00:38.758Z,6.30
2017-12-24T20:03:13.326Z,6.40
2017-12-24T20:05:47.166Z,6.40
2017-12-24T20:08:21.707Z,6.40
2017-12-24T20:10:55.859Z,6.30
2017-12-24T20:13:29.643Z,6.30
2017-12-24T20:16:03.469Z,6.10
2017-12-24T20:18:38.208Z,6.10
2017-12-24T20:21:12.910Z,6.10
2017-12-24T20:23:47.035Z,6.10
2017-12-24T20:26:20.875Z,6.10
2017-12-24T20:28:54.848Z,6.10
2017-12-24T20:31:28.714Z,6.10
2017-12-24T20:34:02.650Z,6.10
2017-12-24T20:36:36.360Z,6.00
2017-12-24T20:39:10.181Z,6.10
2017-12-24T20:41:44.055Z,6.10
2017-12-24T20:44:18.102Z,6.20
2017-12-24T20:46:52.140Z,6.30
2017-12-24T20:49:26.859Z,6.20
2017-12-24T20:52:00.648Z,6.20
2017-12-24T20:54:34.679Z,6.20
2017-12-24T20:57:08.652Z,6.10
2017-12-24T20:59:42.521Z,6.10
2017-12-24T21:02:17.071Z,6.10
2017-12-24T21:04:51.889Z,6.10
2017-12-24T21:07:25.736Z,6.10
2017-12-24T21:10:00.513Z,6.00
2017-12-24T21:12:34.424Z,6.00
2017-12-24T21:15:09.129Z,6.00
2017-12-24T21:17:42.919Z,6.00
2017-12-24T21:20:16.808Z,6.00
2017-12-24T21:22:50.531Z,6.00
2017-12-24T21:25:24.363Z,6.00
2017-12-24T21:27:58.101Z,6.00
2017-12-24T21:30:32.067Z,5.90
2017-12-24T21:33:05.859Z,5.90
2017-12-24T21:35:39.663Z,5.90
2017-12-24T21:38:13.776Z,5.90
2017-12-24T21:40:47.599Z,5.90
2017-12-24T21:43:22.191Z,5.70
2017-12-24T21:45:56.195Z,5.70
2017-12-24T21:48:30.823Z,5.70
2017-12-24T21:51:05.455Z,5.70
2017-12-24T21:53:39.211Z,5.70
2017-12-24T21:56:13.511Z,5.70
2017-12-24T21:58:47.154Z,5.70
2017-12-24T22:01:20.942Z,5.60
2017-12-24T22:03:55.610Z,5.60
2017-12-24T22:06:29.490Z,5.60
2017-12-24T22:09:04.047Z,5.70
2017-12-24T22:11:38.513Z,5.70
2017-12-24T22:14:12.363Z,5.70
2017-12-24T22:16:46.173Z,5.70
2017-12-24T22:19:19.986Z,5.60
2017-12-24T22:21:54.119Z,5.60
2017-12-24T22:24:27.820Z,5.70
2017-12-24T22:27:01.640Z,5.80
2017-12-24T22:29:35.362Z,5.90
2017-12-24T22:32:09.530Z,5.80
2017-12-24T22:34:43.271Z,5.80
2017-12-24T22:37:17.136Z,5.80
2017-12-24T22:39:51.234Z,5.90
2017-12-24T22:42:24.995Z,5.90
2017-12-24T22:44:58.712Z,5.90
2017-12-24T22:47:32.456Z,5.90
2017-12-24T22:50:06.288Z,5.90
2017-12-24T22:52:40.777Z,5.80
2017-12-24T22:55:14.629Z,5.80
2017-12-24T22:57:48.350Z,5.80
2017-12-24T23:00:22.145Z,5.80
2017-12-24T23:02:56.005Z,5.80
2017-12-24T23:05:30.644Z,5.90
2017-12-24T23:08:04.535Z,5.80
2017-12-24T23:10:38.492Z,5.80
2017-12-24T23:13:12.465Z,5.80
2017-12-24T23:15:46.251Z,5.80
2017-12-24T23:18:20.092Z,5.80
2017-12-24T23:20:54.035Z,5.80
2017-12-24T23:23:28.634Z,5.80
2017-12-24T23:26:02.414Z,5.80
2017-12-24T23:28:37.101Z,5.90
2017-12-24T23:31:10.817Z,5.90
2017-12-24T23:33:45.424Z,5.80
2017-12-24T23:36:19.897Z,5.90
2017-12-24T23:38:53.632Z,5.90
2017-12-24T23:41:27.452Z,5.80
2017-12-24T23:44:01.039Z,5.80
2017-12-24T23:46:35.179Z,5.90
2017-12-24T23:49:08.894Z,5.80
2017-12-24T23:51:43.364Z,5.70
2017-12-24T23:54:17.290Z,5.70
2017-12-24T23:56:51.052Z,5.60
2017-12-24T23:59:25.082Z,5.60
